This is the latest recevied weather packets stored in our database for station/object CT1ETE-13. If no packets are shown the sender has not sent any weather packets the latest 10 day(s).
| Time | Temp. | Humidity | Pressure | Rain* | Wind** | Luminosity | Snow |
|---|---|---|---|---|---|---|---|
| 1787804532 | 13.33° C | 83% | 1009.3 hPa | 3.05 mm | - | 1491 W/m² | - |
| 1787803691 | 15° C | 72% | 1009.3 hPa | 0.25 mm | - | 1485 W/m² | - |
| 1787802790 | 14.44° C | 75% | 1009.2 hPa | 0 mm | - | 1487 W/m² | - |
| 1787801891 | 14.44° C | 76% | 1009.2 hPa | 0.51 mm | - | 1489 W/m² | - |
| 1787800931 | 14.44° C | 74% | 1009.3 hPa | 0.51 mm | - | 1487 W/m² | - |
| 1787800031 | 14.44° C | 70% | 1009.3 hPa | 0.51 mm | - | 1489 W/m² | - |
| 1787799131 | 13.89° C | 75% | 1009.6 hPa | 0.51 mm | - | 1492 W/m² | - |
| 1787798230 | 13.33° C | 77% | 1009.6 hPa | 0.51 mm | - | 1492 W/m² | - |
| 1787797331 | 13.33° C | 77% | 1009.9 hPa | 3.56 mm | - | 1492 W/m² | - |
| 1787796425 | 13.33° C | 77% | 1010 hPa | 3.56 mm | - | 1489 W/m² | - |
| 1787795525 | 13.89° C | 80% | 1010 hPa | 3.56 mm | - | 1489 W/m² | - |
| 1787794623 | 14.44° C | 82% | 1010.1 hPa | 3.05 mm | - | 1484 W/m² | - |
| 1787793723 | 15° C | 72% | 1009.6 hPa | 0 mm | - | 1482 W/m² | - |
| 1787792823 | 15° C | 74% | 1009.9 hPa | 0 mm | - | 1482 W/m² | - |
| 1787791983 | 15.56° C | 75% | 1010.2 hPa | 0 mm | - | 1480 W/m² | - |
| 1787791083 | 15.56° C | 73% | 1010.3 hPa | 0 mm | - | 1478 W/m² | - |
| 1787790182 | 15.56° C | 72% | 1010.3 hPa | 0 mm | - | 1478 W/m² | - |
| 1787789223 | 15.56° C | 72% | 1010.4 hPa | 0 mm | - | 1480 W/m² | - |
| 1787788323 | 15.56° C | 72% | 1010.5 hPa | 0.76 mm | - | 1478 W/m² | - |
| 1787787483 | 15.56° C | 74% | 1010.5 hPa | 1.02 mm | - | 1478 W/m² | - |
| 1787786583 | 15.56° C | 76% | 1010.6 hPa | 1.52 mm | - | 1478 W/m² | - |
| 1787785621 | 15.56° C | 79% | 1010.6 hPa | 1.78 mm | - | 1477 W/m² | - |
| 1787784781 | 16.11° C | 80% | 1010.7 hPa | 1.02 mm | - | 1477 W/m² | - |
| 1787783820 | 16.11° C | 82% | 1010.7 hPa | 0.76 mm | - | 1475 W/m² | - |
| 1787782980 | 16.11° C | 84% | 1010.8 hPa | 0.25 mm | - | 1473 W/m² | - |
* Rain latest hour (hover to see other rain measurements)
** Current wind speed in m/s (hover to see current wind gust speed)